Aviation Digital Data Service (ADDS)

Output produced by METARs form (1043 UTC 10 February 2016)
found at http://aviationweather.gov/adds/metars/
 
KBHB 100520Z 1006/1106 33007KT P6SM BKN028 
     FM100800 34007KT P6SM SCT035 
     FM101200 36004KT P6SM BKN035 
     FM101800 VRB03KT P6SM BKN030 
     FM110000 VRB03KT P6SM VCSH OVC020 AMD LTD TO CLD VIS AND WIND